sensor_id;sensor_type;location;lat;lon;timestamp;pressure;altitude;pressure_sealevel;temperature;humidity
53526;BME280;40551;50.478;19.378;2023-02-15T00:01:48;99588.83;;;2.24;84.56
53526;BME280;40551;50.478;19.378;2023-02-15T00:04:22;99585.95;;;2.23;84.50
53526;BME280;40551;50.478;19.378;2023-02-15T00:06:54;99585.27;;;2.23;84.56
53526;BME280;40551;50.478;19.378;2023-02-15T00:09:25;99581.68;;;2.22;84.70
53526;BME280;40551;50.478;19.378;2023-02-15T00:11:56;99580.09;;;2.18;84.88
53526;BME280;40551;50.478;19.378;2023-02-15T00:14:26;99578.09;;;2.22;84.97
53526;BME280;40551;50.478;19.378;2023-02-15T00:16:58;99575.45;;;2.18;85.03
53526;BME280;40551;50.478;19.378;2023-02-15T00:19:31;99571.98;;;2.20;84.78
53526;BME280;40551;50.478;19.378;2023-02-15T00:22:01;99572.53;;;2.18;84.72
53526;BME280;40551;50.478;19.378;2023-02-15T00:24:33;99569.33;;;2.10;84.36
53526;BME280;40551;50.478;19.378;2023-02-15T00:27:05;99564.75;;;2.09;84.87
53526;BME280;40551;50.478;19.378;2023-02-15T00:29:37;99562.48;;;2.10;84.92
53526;BME280;40551;50.478;19.378;2023-02-15T00:32:07;99568.10;;;2.12;84.74
53526;BME280;40551;50.478;19.378;2023-02-15T00:34:39;99567.71;;;2.07;85.16
53526;BME280;40551;50.478;19.378;2023-02-15T00:37:09;99564.23;;;2.09;84.79
53526;BME280;40551;50.478;19.378;2023-02-15T00:40:02;99555.95;;;2.05;85.02
53526;BME280;40551;50.478;19.378;2023-02-15T00:42:51;99552.30;;;2.07;85.17
53526;BME280;40551;50.478;19.378;2023-02-15T00:45:24;99550.23;;;2.07;85.03
53526;BME280;40551;50.478;19.378;2023-02-15T00:47:55;99546.83;;;2.07;85.09
53526;BME280;40551;50.478;19.378;2023-02-15T00:50:25;99549.52;;;2.08;85.16
53526;BME280;40551;50.478;19.378;2023-02-15T00:52:57;99549.81;;;2.04;85.16
53526;BME280;40551;50.478;19.378;2023-02-15T00:55:27;99548.76;;;2.05;85.06
53526;BME280;40551;50.478;19.378;2023-02-15T00:57:59;99542.02;;;2.01;85.09
53526;BME280;40551;50.478;19.378;2023-02-15T01:00:29;99540.59;;;2.03;85.26
53526;BME280;40551;50.478;19.378;2023-02-15T01:03:01;99540.00;;;1.99;85.30
53526;BME280;40551;50.478;19.378;2023-02-15T01:05:33;99538.07;;;2.01;85.22
53526;BME280;40551;50.478;19.378;2023-02-15T01:08:07;99542.31;;;2.03;85.11
53526;BME280;40551;50.478;19.378;2023-02-15T01:10:41;99535.80;;;2.03;85.13
53526;BME280;40551;50.478;19.378;2023-02-15T01:13:15;99536.48;;;2.03;84.87
53526;BME280;40551;50.478;19.378;2023-02-15T01:15:51;99536.70;;;2.01;84.97
53526;BME280;40551;50.478;19.378;2023-02-15T01:18:24;99532.42;;;2.01;85.05
53526;BME280;40551;50.478;19.378;2023-02-15T01:20:55;99532.69;;;2.04;85.05
53526;BME280;40551;50.478;19.378;2023-02-15T01:23:27;99534.83;;;2.07;85.03
53526;BME280;40551;50.478;19.378;2023-02-15T01:26:02;99534.77;;;2.10;85.11
53526;BME280;40551;50.478;19.378;2023-02-15T01:28:34;99535.02;;;2.07;85.23
53526;BME280;40551;50.478;19.378;2023-02-15T01:31:08;99533.76;;;2.09;85.36
53526;BME280;40551;50.478;19.378;2023-02-15T01:33:40;99529.53;;;2.07;85.33
53526;BME280;40551;50.478;19.378;2023-02-15T01:36:13;99525.02;;;2.10;85.12
53526;BME280;40551;50.478;19.378;2023-02-15T01:38:47;99522.38;;;2.12;85.20
53526;BME280;40551;50.478;19.378;2023-02-15T01:41:37;99519.63;;;2.13;84.97
53526;BME280;40551;50.478;19.378;2023-02-15T01:44:47;99516.42;;;2.11;84.77
53526;BME280;40551;50.478;19.378;2023-02-15T01:47:23;99510.63;;;2.10;84.93
53526;BME280;40551;50.478;19.378;2023-02-15T01:50:06;99507.67;;;2.12;85.20
53526;BME280;40551;50.478;19.378;2023-02-15T01:52:42;99508.48;;;2.14;85.00
53526;BME280;40551;50.478;19.378;2023-02-15T01:55:18;99497.84;;;2.15;84.94
53526;BME280;40551;50.478;19.378;2023-02-15T01:57:50;99494.75;;;2.15;85.05
53526;BME280;40551;50.478;19.378;2023-02-15T02:00:24;99492.12;;;2.11;84.67
53526;BME280;40551;50.478;19.378;2023-02-15T02:02:56;99493.75;;;2.08;84.44
53526;BME280;40551;50.478;19.378;2023-02-15T02:05:29;99488.66;;;2.06;84.87
53526;BME280;40551;50.478;19.378;2023-02-15T02:08:02;99483.33;;;2.07;84.87
53526;BME280;40551;50.478;19.378;2023-02-15T02:10:35;99476.65;;;2.07;84.89
53526;BME280;40551;50.478;19.378;2023-02-15T02:13:07;99471.72;;;2.06;84.80
53526;BME280;40551;50.478;19.378;2023-02-15T02:15:44;99466.48;;;2.04;84.88
53526;BME280;40551;50.478;19.378;2023-02-15T02:18:32;99467.73;;;2.02;84.79
53526;BME280;40551;50.478;19.378;2023-02-15T02:27:21;99455.77;;;1.89;84.87
53526;BME280;40551;50.478;19.378;2023-02-15T02:30:19;99460.53;;;1.89;85.23
53526;BME280;40551;50.478;19.378;2023-02-15T02:33:20;99454.69;;;1.91;85.29
53526;BME280;40551;50.478;19.378;2023-02-15T02:36:06;99448.73;;;1.89;85.06
53526;BME280;40551;50.478;19.378;2023-02-15T02:38:47;99446.50;;;1.83;84.86
53526;BME280;40551;50.478;19.378;2023-02-15T02:41:29;99444.06;;;1.78;84.92
53526;BME280;40551;50.478;19.378;2023-02-15T02:44:10;99441.66;;;1.79;85.27
53526;BME280;40551;50.478;19.378;2023-02-15T02:46:50;99443.22;;;1.78;85.08
53526;BME280;40551;50.478;19.378;2023-02-15T02:49:34;99440.70;;;1.76;85.05
53526;BME280;40551;50.478;19.378;2023-02-15T02:52:33;99436.98;;;1.74;85.26
53526;BME280;40551;50.478;19.378;2023-02-15T02:55:00;99440.27;;;1.72;85.12
53526;BME280;40551;50.478;19.378;2023-02-15T02:57:34;99441.70;;;1.71;85.40
53526;BME280;40551;50.478;19.378;2023-02-15T03:00:10;99440.49;;;1.71;85.25
53526;BME280;40551;50.478;19.378;2023-02-15T03:02:46;99437.83;;;1.68;85.13
53526;BME280;40551;50.478;19.378;2023-02-15T03:05:22;99439.55;;;1.61;84.93
53526;BME280;40551;50.478;19.378;2023-02-15T03:07:57;99438.41;;;1.53;85.22
53526;BME280;40551;50.478;19.378;2023-02-15T03:10:31;99439.89;;;1.48;85.41
53526;BME280;40551;50.478;19.378;2023-02-15T03:13:05;99439.06;;;1.47;85.67
53526;BME280;40551;50.478;19.378;2023-02-15T03:15:39;99434.29;;;1.46;85.43
53526;BME280;40551;50.478;19.378;2023-02-15T03:18:34;99431.06;;;1.46;85.52
53526;BME280;40551;50.478;19.378;2023-02-15T03:21:08;99424.77;;;1.44;85.88
53526;BME280;40551;50.478;19.378;2023-02-15T03:23:56;99425.98;;;1.44;85.82
53526;BME280;40551;50.478;19.378;2023-02-15T03:26:31;99424.89;;;1.40;85.50
53526;BME280;40551;50.478;19.378;2023-02-15T03:29:06;99426.88;;;1.35;85.48
53526;BME280;40551;50.478;19.378;2023-02-15T03:31:41;99432.08;;;1.32;85.59
53526;BME280;40551;50.478;19.378;2023-02-15T03:34:16;99436.19;;;1.32;85.78
53526;BME280;40551;50.478;19.378;2023-02-15T03:36:52;99436.18;;;1.32;85.82
53526;BME280;40551;50.478;19.378;2023-02-15T03:39:32;99432.36;;;1.28;85.90
53526;BME280;40551;50.478;19.378;2023-02-15T03:42:11;99432.30;;;1.23;85.77
53526;BME280;40551;50.478;19.378;2023-02-15T03:44:50;99432.05;;;1.20;86.09
53526;BME280;40551;50.478;19.378;2023-02-15T03:47:26;99442.45;;;1.21;86.20
53526;BME280;40551;50.478;19.378;2023-02-15T03:50:02;99440.37;;;1.22;86.17
53526;BME280;40551;50.478;19.378;2023-02-15T03:52:56;99435.95;;;1.21;85.97
53526;BME280;40551;50.478;19.378;2023-02-15T03:55:29;99437.61;;;1.16;86.04
53526;BME280;40551;50.478;19.378;2023-02-15T03:58:00;99441.49;;;1.11;86.23
53526;BME280;40551;50.478;19.378;2023-02-15T04:00:54;99442.38;;;1.10;86.34
53526;BME280;40551;50.478;19.378;2023-02-15T04:03:49;99434.92;;;1.07;86.56
53526;BME280;40551;50.478;19.378;2023-02-15T04:06:22;99434.48;;;1.04;86.49
53526;BME280;40551;50.478;19.378;2023-02-15T04:08:52;99435.55;;;1.02;86.49
53526;BME280;40551;50.478;19.378;2023-02-15T04:11:42;99439.27;;;0.97;86.89
53526;BME280;40551;50.478;19.378;2023-02-15T04:14:13;99440.02;;;1.01;87.08
53526;BME280;40551;50.478;19.378;2023-02-15T04:17:06;99439.43;;;1.04;87.07
53526;BME280;40551;50.478;19.378;2023-02-15T04:19:38;99435.84;;;1.04;86.92
53526;BME280;40551;50.478;19.378;2023-02-15T04:22:28;99438.96;;;1.03;86.74
53526;BME280;40551;50.478;19.378;2023-02-15T04:25:18;99439.42;;;1.05;87.18
53526;BME280;40551;50.478;19.378;2023-02-15T04:27:51;99440.09;;;1.05;87.05
53526;BME280;40551;50.478;19.378;2023-02-15T04:30:24;99441.09;;;1.06;86.89
53526;BME280;40551;50.478;19.378;2023-02-15T04:32:57;99439.45;;;1.04;86.70
53526;BME280;40551;50.478;19.378;2023-02-15T04:35:27;99437.67;;;1.00;86.58
53526;BME280;40551;50.478;19.378;2023-02-15T04:37:59;99441.55;;;0.94;87.11
53526;BME280;40551;50.478;19.378;2023-02-15T04:40:29;99443.30;;;0.93;87.08
53526;BME280;40551;50.478;19.378;2023-02-15T04:43:00;99442.02;;;0.82;87.18
53526;BME280;40551;50.478;19.378;2023-02-15T04:45:31;99437.48;;;0.78;87.42
53526;BME280;40551;50.478;19.378;2023-02-15T04:48:02;99439.48;;;0.73;87.64
53526;BME280;40551;50.478;19.378;2023-02-15T04:50:33;99439.25;;;0.76;87.66
53526;BME280;40551;50.478;19.378;2023-02-15T04:53:04;99434.19;;;0.73;87.88
53526;BME280;40551;50.478;19.378;2023-02-15T04:55:34;99436.91;;;0.73;87.80
53526;BME280;40551;50.478;19.378;2023-02-15T04:58:06;99438.61;;;0.66;87.85
53526;BME280;40551;50.478;19.378;2023-02-15T05:00:38;99439.16;;;0.64;87.93
53526;BME280;40551;50.478;19.378;2023-02-15T05:03:08;99445.98;;;0.65;88.09
53526;BME280;40551;50.478;19.378;2023-02-15T05:05:40;99440.36;;;0.63;88.37
53526;BME280;40551;50.478;19.378;2023-02-15T05:08:12;99437.36;;;0.68;88.20
53526;BME280;40551;50.478;19.378;2023-02-15T05:10:42;99434.92;;;0.71;88.26
53526;BME280;40551;50.478;19.378;2023-02-15T05:13:14;99435.00;;;0.67;88.21
53526;BME280;40551;50.478;19.378;2023-02-15T05:15:47;99432.53;;;0.70;88.32
53526;BME280;40551;50.478;19.378;2023-02-15T05:18:21;99436.34;;;0.69;88.36
53526;BME280;40551;50.478;19.378;2023-02-15T05:20:53;99430.11;;;0.72;88.37
53526;BME280;40551;50.478;19.378;2023-02-15T05:23:23;99434.99;;;0.76;88.31
53526;BME280;40551;50.478;19.378;2023-02-15T05:25:54;99430.65;;;0.71;88.29
53526;BME280;40551;50.478;19.378;2023-02-15T05:28:52;99432.16;;;0.64;88.00
53526;BME280;40551;50.478;19.378;2023-02-15T05:31:22;99432.88;;;0.63;88.22
53526;BME280;40551;50.478;19.378;2023-02-15T05:33:54;99439.94;;;0.60;88.41
53526;BME280;40551;50.478;19.378;2023-02-15T05:36:24;99436.08;;;0.64;88.61
53526;BME280;40551;50.478;19.378;2023-02-15T05:38:56;99438.65;;;0.64;88.93
53526;BME280;40551;50.478;19.378;2023-02-15T05:41:28;99434.11;;;0.68;88.55
53526;BME280;40551;50.478;19.378;2023-02-15T05:43:58;99437.87;;;0.68;88.36
53526;BME280;40551;50.478;19.378;2023-02-15T05:46:29;99435.89;;;0.66;88.61
53526;BME280;40551;50.478;19.378;2023-02-15T05:49:01;99437.86;;;0.69;88.74
53526;BME280;40551;50.478;19.378;2023-02-15T05:51:31;99438.30;;;0.72;88.43
53526;BME280;40551;50.478;19.378;2023-02-15T05:54:03;99436.95;;;0.72;88.80
53526;BME280;40551;50.478;19.378;2023-02-15T05:56:35;99436.70;;;0.75;88.66
53526;BME280;40551;50.478;19.378;2023-02-15T05:59:05;99436.05;;;0.74;88.37
53526;BME280;40551;50.478;19.378;2023-02-15T06:01:37;99435.83;;;0.68;88.43
53526;BME280;40551;50.478;19.378;2023-02-15T06:04:07;99437.03;;;0.68;88.53
53526;BME280;40551;50.478;19.378;2023-02-15T06:06:39;99435.61;;;0.63;88.57
53526;BME280;40551;50.478;19.378;2023-02-15T06:09:10;99434.58;;;0.63;88.56
53526;BME280;40551;50.478;19.378;2023-02-15T06:11:43;99439.41;;;0.61;88.79
53526;BME280;40551;50.478;19.378;2023-02-15T06:14:13;99439.98;;;0.66;89.16
53526;BME280;40551;50.478;19.378;2023-02-15T06:16:44;99440.67;;;0.65;89.02
53526;BME280;40551;50.478;19.378;2023-02-15T06:19:16;99441.92;;;0.71;89.08
53526;BME280;40551;50.478;19.378;2023-02-15T06:21:49;99441.71;;;0.73;88.84
53526;BME280;40551;50.478;19.378;2023-02-15T06:24:21;99443.90;;;0.74;88.72
53526;BME280;40551;50.478;19.378;2023-02-15T06:26:53;99451.27;;;0.74;88.55
53526;BME280;40551;50.478;19.378;2023-02-15T06:29:23;99447.65;;;0.74;88.74
53526;BME280;40551;50.478;19.378;2023-02-15T06:31:55;99449.27;;;0.71;88.71
53526;BME280;40551;50.478;19.378;2023-02-15T06:34:27;99450.61;;;0.71;88.72
53526;BME280;40551;50.478;19.378;2023-02-15T06:36:57;99453.34;;;0.72;88.69
53526;BME280;40551;50.478;19.378;2023-02-15T06:39:29;99456.67;;;0.68;88.74
53526;BME280;40551;50.478;19.378;2023-02-15T06:42:01;99453.95;;;0.67;88.86
53526;BME280;40551;50.478;19.378;2023-02-15T06:44:32;99451.84;;;0.62;88.54
53526;BME280;40551;50.478;19.378;2023-02-15T06:47:02;99452.77;;;0.59;88.70
53526;BME280;40551;50.478;19.378;2023-02-15T06:49:34;99452.67;;;0.54;89.20
53526;BME280;40551;50.478;19.378;2023-02-15T06:52:04;99456.84;;;0.60;89.49
53526;BME280;40551;50.478;19.378;2023-02-15T06:54:36;99452.75;;;0.59;89.52
53526;BME280;40551;50.478;19.378;2023-02-15T06:57:06;99454.52;;;0.64;89.38
53526;BME280;40551;50.478;19.378;2023-02-15T06:59:39;99455.40;;;0.63;89.47
53526;BME280;40551;50.478;19.378;2023-02-15T07:02:12;99454.98;;;0.66;89.44
53526;BME280;40551;50.478;19.378;2023-02-15T07:04:44;99452.13;;;0.64;89.13
53526;BME280;40551;50.478;19.378;2023-02-15T07:07:16;99450.34;;;0.61;88.92
53526;BME280;40551;50.478;19.378;2023-02-15T07:09:46;99447.93;;;0.61;89.23
53526;BME280;40551;50.478;19.378;2023-02-15T07:12:18;99446.08;;;0.61;89.67
53526;BME280;40551;50.478;19.378;2023-02-15T07:15:08;99443.41;;;0.65;89.57
53526;BME280;40551;50.478;19.378;2023-02-15T07:17:41;99437.48;;;0.70;89.94
53526;BME280;40551;50.478;19.378;2023-02-15T07:20:15;99434.61;;;0.77;89.86
53526;BME280;40551;50.478;19.378;2023-02-15T07:22:48;99434.47;;;0.82;89.70
53526;BME280;40551;50.478;19.378;2023-02-15T07:25:20;99425.70;;;0.85;89.46
53526;BME280;40551;50.478;19.378;2023-02-15T07:27:57;99423.95;;;0.87;89.42
53526;BME280;40551;50.478;19.378;2023-02-15T07:30:29;99420.61;;;0.91;89.75
53526;BME280;40551;50.478;19.378;2023-02-15T07:33:01;99418.48;;;0.95;89.67
53526;BME280;40551;50.478;19.378;2023-02-15T07:35:51;99414.66;;;0.97;89.54
53526;BME280;40551;50.478;19.378;2023-02-15T07:38:24;99412.64;;;0.96;89.16
53526;BME280;40551;50.478;19.378;2023-02-15T07:41:00;99408.20;;;0.88;88.80
53526;BME280;40551;50.478;19.378;2023-02-15T07:43:34;99411.73;;;0.84;89.04
53526;BME280;40551;50.478;19.378;2023-02-15T07:46:08;99414.14;;;0.83;89.13
53526;BME280;40551;50.478;19.378;2023-02-15T07:48:41;99413.63;;;0.83;89.36
53526;BME280;40551;50.478;19.378;2023-02-15T07:51:14;99417.29;;;0.80;89.16
53526;BME280;40551;50.478;19.378;2023-02-15T07:53:46;99417.64;;;0.72;89.15
53526;BME280;40551;50.478;19.378;2023-02-15T07:56:18;99418.02;;;0.71;89.34
53526;BME280;40551;50.478;19.378;2023-02-15T07:58:50;99414.87;;;0.74;89.67
53526;BME280;40551;50.478;19.378;2023-02-15T08:01:23;99413.73;;;0.78;89.73
53526;BME280;40551;50.478;19.378;2023-02-15T08:03:56;99414.99;;;0.83;89.72
53526;BME280;40551;50.478;19.378;2023-02-15T08:06:29;99414.05;;;0.87;89.89
53526;BME280;40551;50.478;19.378;2023-02-15T08:09:02;99410.15;;;0.93;89.89
53526;BME280;40551;50.478;19.378;2023-02-15T08:11:36;99406.42;;;0.99;89.93
53526;BME280;40551;50.478;19.378;2023-02-15T08:14:11;99408.37;;;1.03;89.64
53526;BME280;40551;50.478;19.378;2023-02-15T08:16:45;99405.57;;;1.06;89.58
53526;BME280;40551;50.478;19.378;2023-02-15T08:19:18;99403.61;;;1.09;89.62
53526;BME280;40551;50.478;19.378;2023-02-15T08:21:52;99397.95;;;1.03;89.13
53526;BME280;40551;50.478;19.378;2023-02-15T08:24:25;99397.41;;;0.97;89.19
53526;BME280;40551;50.478;19.378;2023-02-15T08:26:58;99397.59;;;0.96;89.37
53526;BME280;40551;50.478;19.378;2023-02-15T08:29:31;99399.93;;;0.99;89.57
53526;BME280;40551;50.478;19.378;2023-02-15T08:32:06;99399.77;;;1.05;90.04
53526;BME280;40551;50.478;19.378;2023-02-15T08:34:40;99399.04;;;1.14;90.07
53526;BME280;40551;50.478;19.378;2023-02-15T08:37:12;99395.41;;;1.23;90.08
53526;BME280;40551;50.478;19.378;2023-02-15T08:39:44;99394.42;;;1.28;89.91
53526;BME280;40551;50.478;19.378;2023-02-15T08:42:16;99388.74;;;1.29;89.60
53526;BME280;40551;50.478;19.378;2023-02-15T08:44:46;99389.70;;;1.32;89.39
53526;BME280;40551;50.478;19.378;2023-02-15T08:47:20;99385.90;;;1.27;89.46
53526;BME280;40551;50.478;19.378;2023-02-15T08:49:50;99387.19;;;1.31;89.75
53526;BME280;40551;50.478;19.378;2023-02-15T08:52:22;99387.11;;;1.33;90.09
53526;BME280;40551;50.478;19.378;2023-02-15T08:54:53;99386.02;;;1.42;90.04
53526;BME280;40551;50.478;19.378;2023-02-15T08:57:25;99381.38;;;1.43;89.80
53526;BME280;40551;50.478;19.378;2023-02-15T08:59:58;99382.74;;;1.49;89.71
53526;BME280;40551;50.478;19.378;2023-02-15T09:02:30;99381.39;;;1.56;89.43
53526;BME280;40551;50.478;19.378;2023-02-15T09:05:02;99381.23;;;1.62;89.55
53526;BME280;40551;50.478;19.378;2023-02-15T09:07:34;99379.69;;;1.68;89.59
53526;BME280;40551;50.478;19.378;2023-02-15T09:10:06;99379.34;;;1.74;89.40
53526;BME280;40551;50.478;19.378;2023-02-15T09:12:38;99377.00;;;1.72;89.15
53526;BME280;40551;50.478;19.378;2023-02-15T09:15:08;99375.02;;;1.76;89.06
53526;BME280;40551;50.478;19.378;2023-02-15T09:17:41;99374.64;;;1.77;89.23
53526;BME280;40551;50.478;19.378;2023-02-15T09:20:13;99374.73;;;1.81;88.94
53526;BME280;40551;50.478;19.378;2023-02-15T09:22:45;99371.94;;;1.88;89.35
53526;BME280;40551;50.478;19.378;2023-02-15T09:25:15;99369.11;;;1.97;89.31
53526;BME280;40551;50.478;19.378;2023-02-15T09:27:47;99367.00;;;1.99;89.08
53526;BME280;40551;50.478;19.378;2023-02-15T09:30:19;99364.10;;;2.05;88.77
53526;BME280;40551;50.478;19.378;2023-02-15T09:32:50;99363.14;;;2.09;88.54
53526;BME280;40551;50.478;19.378;2023-02-15T09:35:21;99357.90;;;2.13;88.59
53526;BME280;40551;50.478;19.378;2023-02-15T09:37:52;99354.34;;;2.11;88.52
53526;BME280;40551;50.478;19.378;2023-02-15T09:40:22;99354.77;;;2.08;87.88
53526;BME280;40551;50.478;19.378;2023-02-15T09:43:28;99353.10;;;2.01;87.94
53526;BME280;40551;50.478;19.378;2023-02-15T09:46:18;99356.76;;;2.05;88.38
53526;BME280;40551;50.478;19.378;2023-02-15T09:48:53;99353.45;;;2.13;88.37
53526;BME280;40551;50.478;19.378;2023-02-15T09:51:41;99350.38;;;2.17;88.02
53526;BME280;40551;50.478;19.378;2023-02-15T09:54:32;99346.50;;;2.21;87.82
53526;BME280;40551;50.478;19.378;2023-02-15T09:57:13;99344.89;;;2.23;87.48
53526;BME280;40551;50.478;19.378;2023-02-15T09:59:58;99341.70;;;2.22;87.42
53526;BME280;40551;50.478;19.378;2023-02-15T10:02:56;99341.83;;;2.23;87.49
53526;BME280;40551;50.478;19.378;2023-02-15T10:05:43;99338.54;;;2.24;87.40
53526;BME280;40551;50.478;19.378;2023-02-15T10:08:37;99329.22;;;2.27;87.53
53526;BME280;40551;50.478;19.378;2023-02-15T10:11:16;99323.31;;;2.30;87.42
53526;BME280;40551;50.478;19.378;2023-02-15T10:14:15;99321.63;;;2.34;87.21
53526;BME280;40551;50.478;19.378;2023-02-15T10:16:56;99322.33;;;2.39;87.48
53526;BME280;40551;50.478;19.378;2023-02-15T10:19:39;99318.75;;;2.50;87.82
53526;BME280;40551;50.478;19.378;2023-02-15T10:22:24;99315.88;;;2.64;87.91
53526;BME280;40551;50.478;19.378;2023-02-15T10:25:09;99310.98;;;2.73;87.58
53526;BME280;40551;50.478;19.378;2023-02-15T10:27:47;99307.92;;;2.82;87.41
53526;BME280;40551;50.478;19.378;2023-02-15T10:30:26;99305.11;;;2.90;87.26
53526;BME280;40551;50.478;19.378;2023-02-15T10:33:03;99304.60;;;3.00;87.02
53526;BME280;40551;50.478;19.378;2023-02-15T10:35:40;99297.77;;;3.04;86.95
53526;BME280;40551;50.478;19.378;2023-02-15T10:38:22;99291.05;;;3.15;87.35
53526;BME280;40551;50.478;19.378;2023-02-15T10:41:05;99295.95;;;3.27;86.89
53526;BME280;40551;50.478;19.378;2023-02-15T10:44:13;99290.45;;;3.32;86.56
53526;BME280;40551;50.478;19.378;2023-02-15T10:47:09;99287.44;;;3.40;86.09
53526;BME280;40551;50.478;19.378;2023-02-15T10:49:58;99282.48;;;3.40;85.76
53526;BME280;40551;50.478;19.378;2023-02-15T10:52:42;99278.37;;;3.39;85.61
53526;BME280;40551;50.478;19.378;2023-02-15T10:55:24;99275.09;;;3.45;85.51
53526;BME280;40551;50.478;19.378;2023-02-15T10:58:02;99272.40;;;3.48;85.43
53526;BME280;40551;50.478;19.378;2023-02-15T11:00:41;99271.30;;;3.55;85.44
53526;BME280;40551;50.478;19.378;2023-02-15T11:03:27;99265.67;;;3.63;85.44
53526;BME280;40551;50.478;19.378;2023-02-15T11:06:05;99265.02;;;3.71;85.44
53526;BME280;40551;50.478;19.378;2023-02-15T11:08:42;99262.31;;;3.79;85.16
53526;BME280;40551;50.478;19.378;2023-02-15T11:11:19;99255.70;;;3.86;85.15
53526;BME280;40551;50.478;19.378;2023-02-15T11:13:56;99252.24;;;3.96;84.85
53526;BME280;40551;50.478;19.378;2023-02-15T11:16:32;99250.21;;;4.04;84.75
53526;BME280;40551;50.478;19.378;2023-02-15T11:19:08;99246.45;;;4.08;84.11
53526;BME280;40551;50.478;19.378;2023-02-15T11:21:44;99245.79;;;4.15;84.32
53526;BME280;40551;50.478;19.378;2023-02-15T11:24:19;99244.02;;;4.26;84.55
53526;BME280;40551;50.478;19.378;2023-02-15T11:26:56;99241.67;;;4.37;84.42
53526;BME280;40551;50.478;19.378;2023-02-15T11:29:32;99241.27;;;4.47;84.08
53526;BME280;40551;50.478;19.378;2023-02-15T11:32:17;99238.29;;;4.57;83.85
53526;BME280;40551;50.478;19.378;2023-02-15T11:34:53;99233.54;;;4.68;83.99
53526;BME280;40551;50.478;19.378;2023-02-15T11:37:31;99228.31;;;4.78;83.69
53526;BME280;40551;50.478;19.378;2023-02-15T11:40:19;99229.04;;;4.89;83.60
53526;BME280;40551;50.478;19.378;2023-02-15T11:42:53;99225.39;;;4.98;83.33
53526;BME280;40551;50.478;19.378;2023-02-15T11:45:29;99220.25;;;5.05;82.99
53526;BME280;40551;50.478;19.378;2023-02-15T11:48:05;99220.40;;;5.14;82.96
53526;BME280;40551;50.478;19.378;2023-02-15T11:50:41;99218.03;;;5.25;82.93
53526;BME280;40551;50.478;19.378;2023-02-15T11:53:15;99214.38;;;5.33;82.64
53526;BME280;40551;50.478;19.378;2023-02-15T11:55:48;99208.08;;;5.40;82.25
53526;BME280;40551;50.478;19.378;2023-02-15T11:58:29;99206.25;;;5.46;82.03
53526;BME280;40551;50.478;19.378;2023-02-15T12:01:11;99202.60;;;5.54;81.94
53526;BME280;40551;50.478;19.378;2023-02-15T12:03:47;99200.20;;;5.61;81.72
53526;BME280;40551;50.478;19.378;2023-02-15T12:06:25;99198.87;;;5.68;81.40
53526;BME280;40551;50.478;19.378;2023-02-15T12:09:02;99193.80;;;5.73;81.45
53526;BME280;40551;50.478;19.378;2023-02-15T12:11:38;99194.66;;;5.80;81.19
53526;BME280;40551;50.478;19.378;2023-02-15T12:14:12;99187.20;;;5.85;80.92
53526;BME280;40551;50.478;19.378;2023-02-15T12:16:48;99182.33;;;5.90;80.67
53526;BME280;40551;50.478;19.378;2023-02-15T12:19:29;99176.39;;;5.96;80.58
53526;BME280;40551;50.478;19.378;2023-02-15T12:22:03;99177.16;;;6.02;80.16
53526;BME280;40551;50.478;19.378;2023-02-15T12:24:46;99169.65;;;6.04;79.90
53526;BME280;40551;50.478;19.378;2023-02-15T12:27:19;99167.93;;;6.07;79.61
53526;BME280;40551;50.478;19.378;2023-02-15T12:29:55;99163.19;;;6.09;78.74
53526;BME280;40551;50.478;19.378;2023-02-15T12:32:30;99159.57;;;6.09;78.62
53526;BME280;40551;50.478;19.378;2023-02-15T12:35:09;99154.85;;;6.14;79.10
53526;BME280;40551;50.478;19.378;2023-02-15T12:37:53;99160.63;;;6.19;79.26
53526;BME280;40551;50.478;19.378;2023-02-15T12:40:26;99155.33;;;6.26;79.53
53526;BME280;40551;50.478;19.378;2023-02-15T12:43:01;99151.42;;;6.31;79.12
53526;BME280;40551;50.478;19.378;2023-02-15T12:45:39;99151.98;;;6.37;78.84
53526;BME280;40551;50.478;19.378;2023-02-15T12:48:16;99148.42;;;6.39;78.50
53526;BME280;40551;50.478;19.378;2023-02-15T12:50:50;99144.61;;;6.43;78.39
53526;BME280;40551;50.478;19.378;2023-02-15T12:53:32;99145.95;;;6.48;78.22
53526;BME280;40551;50.478;19.378;2023-02-15T12:56:06;99141.73;;;6.53;78.24
53526;BME280;40551;50.478;19.378;2023-02-15T12:58:39;99137.23;;;6.56;78.13
53526;BME280;40551;50.478;19.378;2023-02-15T13:01:14;99135.67;;;6.60;77.98
53526;BME280;40551;50.478;19.378;2023-02-15T13:03:57;99131.25;;;6.62;77.56
53526;BME280;40551;50.478;19.378;2023-02-15T13:06:32;99126.95;;;6.65;77.64
53526;BME280;40551;50.478;19.378;2023-02-15T13:09:13;99122.35;;;6.68;77.43
53526;BME280;40551;50.478;19.378;2023-02-15T13:11:47;99115.92;;;6.72;77.59
53526;BME280;40551;50.478;19.378;2023-02-15T13:14:21;99116.23;;;6.76;77.06
53526;BME280;40551;50.478;19.378;2023-02-15T13:16:58;99112.82;;;6.78;76.31
53526;BME280;40551;50.478;19.378;2023-02-15T13:19:36;99112.11;;;6.79;76.02
53526;BME280;40551;50.478;19.378;2023-02-15T13:22:12;99106.90;;;6.79;76.08
53526;BME280;40551;50.478;19.378;2023-02-15T13:24:48;99105.13;;;6.80;76.01
53526;BME280;40551;50.478;19.378;2023-02-15T13:27:23;99101.33;;;6.83;75.92
53526;BME280;40551;50.478;19.378;2023-02-15T13:29:58;99104.80;;;6.86;75.73
53526;BME280;40551;50.478;19.378;2023-02-15T13:32:35;99098.94;;;6.90;75.89
53526;BME280;40551;50.478;19.378;2023-02-15T13:35:15;99096.36;;;6.93;75.88
53526;BME280;40551;50.478;19.378;2023-02-15T13:38:02;99096.89;;;6.96;75.94
53526;BME280;40551;50.478;19.378;2023-02-15T13:40:43;99091.08;;;6.98;75.74
53526;BME280;40551;50.478;19.378;2023-02-15T13:43:30;99089.09;;;7.00;75.59
53526;BME280;40551;50.478;19.378;2023-02-15T13:46:16;99088.30;;;7.02;75.52
53526;BME280;40551;50.478;19.378;2023-02-15T13:48:59;99085.79;;;7.04;75.22
53526;BME280;40551;50.478;19.378;2023-02-15T13:51:37;99086.98;;;7.07;75.52
53526;BME280;40551;50.478;19.378;2023-02-15T13:54:36;99084.35;;;7.11;75.36